createdAt,value
2018-07-06T00:01:56.876Z,100231.14
2018-07-06T00:04:36.489Z,100244.57
2018-07-06T00:07:16.323Z,100235.98
2018-07-06T00:09:56.038Z,100237.84
2018-07-06T00:12:35.672Z,100239.33
2018-07-06T00:15:15.317Z,100236.69
2018-07-06T00:17:54.946Z,100245.30
2018-07-06T00:20:34.680Z,100239.87
2018-07-06T00:23:14.444Z,100240.64
2018-07-06T00:25:54.126Z,100242.14
2018-07-06T00:28:33.676Z,100243.05
2018-07-06T00:31:13.221Z,100247.86
2018-07-06T00:33:52.823Z,100240.25
2018-07-06T00:36:32.581Z,100242.64
2018-07-06T00:39:12.177Z,100246.72
2018-07-06T00:41:52.420Z,100245.38
2018-07-06T00:44:32.018Z,100243.98
2018-07-06T00:47:11.926Z,100250.55
2018-07-06T00:49:51.697Z,100247.09
2018-07-06T00:52:31.374Z,100248.52
2018-07-06T00:55:11.041Z,100249.93
2018-07-06T00:57:52.715Z,100254.66
2018-07-06T01:00:32.223Z,100250.26
2018-07-06T01:03:12.201Z,100251.15
2018-07-06T01:05:52.123Z,100254.42
2018-07-06T01:08:32.368Z,100252.03
2018-07-06T01:11:12.230Z,100262.20
2018-07-06T01:13:51.837Z,100261.91
2018-07-06T01:16:31.271Z,100258.94
2018-07-06T01:19:10.991Z,100265.27
2018-07-06T01:21:50.636Z,100271.02
2018-07-06T01:24:30.528Z,100268.06
2018-07-06T01:27:10.204Z,100269.22
2018-07-06T01:29:49.897Z,100272.86
2018-07-06T01:32:29.533Z,100277.61
2018-07-06T01:35:09.230Z,100270.26
2018-07-06T01:37:49.173Z,100280.63
2018-07-06T01:40:29.092Z,100276.59
2018-07-06T01:43:09.466Z,100283.14
2018-07-06T01:45:49.462Z,100286.47
2018-07-06T01:48:29.270Z,100279.06
2018-07-06T01:51:09.134Z,100282.70
2018-07-06T01:53:49.724Z,100280.81
2018-07-06T01:56:29.459Z,100275.30
2018-07-06T01:59:09.022Z,100275.30
2018-07-06T02:01:49.317Z,100276.71
2018-07-06T02:04:28.870Z,100286.30
2018-07-06T02:07:08.964Z,100284.11
2018-07-06T02:09:49.481Z,100284.13
2018-07-06T02:12:29.391Z,100287.45
2018-07-06T02:15:09.210Z,100290.73
2018-07-06T02:17:49.561Z,100291.59
2018-07-06T02:20:29.672Z,100301.45
2018-07-06T02:23:09.372Z,100302.57
2018-07-06T02:25:49.665Z,100302.06
2018-07-06T02:28:29.341Z,100302.61
2018-07-06T02:31:09.166Z,100306.48
2018-07-06T02:33:49.125Z,100305.94
2018-07-06T02:36:28.738Z,100308.98
2018-07-06T02:39:08.571Z,100320.75
2018-07-06T02:41:48.548Z,100320.50
2018-07-06T02:44:28.376Z,100316.94
2018-07-06T02:47:07.977Z,100316.69
2018-07-06T02:49:47.767Z,100316.69
2018-07-06T02:52:27.277Z,100318.60
2018-07-06T02:55:07.414Z,100325.17
2018-07-06T02:57:46.973Z,100321.05
2018-07-06T03:00:27.043Z,100322.98
2018-07-06T03:03:06.527Z,100324.89
2018-07-06T03:05:46.432Z,100325.17
2018-07-06T03:08:25.949Z,100321.34
2018-07-06T03:11:05.640Z,100331.18
2018-07-06T03:13:45.363Z,100333.91
2018-07-06T03:16:25.324Z,100332.83
2018-07-06T03:19:04.720Z,100336.10
2018-07-06T03:21:44.274Z,100336.39
2018-07-06T03:24:24.092Z,100336.64
2018-07-06T03:27:03.929Z,100339.38
2018-07-06T03:29:43.378Z,100336.10
2018-07-06T03:32:23.083Z,100335.02
2018-07-06T03:35:03.149Z,100338.00
2018-07-06T03:37:42.697Z,100337.75
2018-07-06T03:40:22.528Z,100337.50
2018-07-06T03:43:01.963Z,100336.13
2018-07-06T03:45:41.777Z,100349.78
2018-07-06T03:48:21.587Z,100345.40
2018-07-06T03:51:01.302Z,100351.94
2018-07-06T03:53:41.068Z,100354.12
2018-07-06T03:56:20.721Z,100360.95
2018-07-06T03:59:00.584Z,100360.13
2018-07-06T04:01:40.254Z,100365.05
2018-07-06T04:04:19.946Z,100371.89
2018-07-06T04:06:59.718Z,100369.42
2018-07-06T04:09:39.509Z,100368.89
2018-07-06T04:12:19.724Z,100367.77
2018-07-06T04:14:59.411Z,100373.80
2018-07-06T04:17:39.172Z,100379.23
2018-07-06T04:20:18.968Z,100382.25
2018-07-06T04:22:58.585Z,100377.05
2018-07-06T04:25:38.425Z,100383.34
2018-07-06T04:28:18.157Z,100386.33
2018-07-06T04:30:58.077Z,100386.87
2018-07-06T04:33:38.158Z,100386.30
2018-07-06T04:36:18.506Z,100396.92
2018-07-06T04:38:58.331Z,100394.48
2018-07-06T04:41:38.107Z,100384.62
2018-07-06T04:44:18.635Z,100394.16
2018-07-06T04:46:58.407Z,100402.87
2018-07-06T04:49:38.107Z,100403.42
2018-07-06T04:52:18.106Z,100409.16
2018-07-06T04:54:57.579Z,100412.95
2018-07-06T04:57:37.440Z,100407.98
2018-07-06T05:00:17.068Z,100413.67
2018-07-06T05:02:56.741Z,100409.80
2018-07-06T05:05:36.333Z,100417.98
2018-07-06T05:08:16.282Z,100422.61
2018-07-06T05:10:55.862Z,100428.75
2018-07-06T05:13:35.260Z,100433.66
2018-07-06T05:16:15.057Z,100436.68
2018-07-06T05:18:54.865Z,100438.16
2018-07-06T05:21:34.518Z,100442.05
2018-07-06T05:24:14.865Z,100441.03
2018-07-06T05:26:54.606Z,100437.53
2018-07-06T05:29:34.926Z,100439.38
2018-07-06T05:32:14.721Z,100443.61
2018-07-06T05:34:54.293Z,100452.88
2018-07-06T05:37:34.045Z,100456.66
2018-07-06T05:40:13.688Z,100448.20
2018-07-06T05:42:53.458Z,100454.94
2018-07-06T05:45:33.031Z,100457.20
2018-07-06T05:48:12.799Z,100463.27
2018-07-06T05:50:52.494Z,100464.19
2018-07-06T05:53:32.430Z,100472.53
2018-07-06T05:56:12.961Z,100464.22
2018-07-06T05:58:52.559Z,100474.63
2018-07-06T06:01:32.203Z,100481.37
2018-07-06T06:04:11.904Z,100481.73
2018-07-06T06:06:51.554Z,100486.27
2018-07-06T06:09:21.014Z,100491.22
2018-07-06T06:11:50.352Z,100483.97
2018-07-06T06:14:19.946Z,100488.53
2018-07-06T06:16:48.821Z,100500.03
2018-07-06T06:19:17.846Z,100498.28
2018-07-06T06:21:46.359Z,100502.60
2018-07-06T06:24:14.871Z,100503.08
2018-07-06T06:26:43.455Z,100503.11
2018-07-06T06:29:12.165Z,100501.00
2018-07-06T06:31:41.252Z,100507.96
2018-07-06T06:34:10.074Z,100513.87
2018-07-06T06:36:38.998Z,100519.05
2018-07-06T06:39:07.683Z,100513.50
2018-07-06T06:41:36.233Z,100518.78
2018-07-06T06:44:05.000Z,100519.76
2018-07-06T06:46:33.758Z,100517.67
2018-07-06T06:49:02.401Z,100518.26
2018-07-06T06:51:31.077Z,100526.91
2018-07-06T06:53:59.737Z,100529.53
2018-07-06T06:56:32.367Z,100526.03
2018-07-06T06:59:01.230Z,100528.84
2018-07-06T07:01:29.836Z,100528.58
2018-07-06T07:03:59.006Z,100522.24
2018-07-06T07:06:27.857Z,100527.33
2018-07-06T07:08:56.521Z,100528.73
2018-07-06T07:11:25.618Z,100536.72
2018-07-06T07:13:54.628Z,100533.80
2018-07-06T07:16:23.353Z,100529.59
2018-07-06T07:18:52.482Z,100537.01
2018-07-06T07:21:21.287Z,100537.91
2018-07-06T07:23:50.946Z,100539.44
2018-07-06T07:26:20.126Z,100538.56
2018-07-06T07:28:48.795Z,100545.30
2018-07-06T07:31:17.809Z,100554.45
2018-07-06T07:33:47.258Z,100550.95
2018-07-06T07:36:16.023Z,100552.58
2018-07-06T07:38:44.782Z,100560.50
2018-07-06T07:41:13.392Z,100553.39
2018-07-06T07:43:42.781Z,100550.66
2018-07-06T07:46:11.373Z,100555.25
2018-07-06T07:48:40.945Z,100559.40
2018-07-06T07:51:57.864Z,100557.64
2018-07-06T07:54:28.521Z,100559.64
2018-07-06T07:56:58.478Z,100560.34
2018-07-06T07:59:28.681Z,100559.86
2018-07-06T08:02:19.122Z,100567.14
2018-07-06T08:04:48.837Z,100566.02
2018-07-06T08:07:17.822Z,100570.33
2018-07-06T08:09:46.477Z,100572.78
2018-07-06T08:12:15.228Z,100572.34
2018-07-06T08:14:44.009Z,100575.02
2018-07-06T08:17:12.839Z,100578.22
2018-07-06T08:19:41.999Z,100578.84
2018-07-06T08:22:10.729Z,100576.70
2018-07-06T08:24:57.929Z,100583.57
2018-07-06T08:27:26.493Z,100586.52
2018-07-06T08:29:54.944Z,100592.00
2018-07-06T08:32:23.404Z,100590.55
2018-07-06T08:35:03.006Z,100592.35
2018-07-06T08:37:45.798Z,100598.65
2018-07-06T08:40:14.446Z,100601.06
2018-07-06T08:42:44.227Z,100606.16
2018-07-06T08:45:13.064Z,100606.39
2018-07-06T08:47:41.835Z,100605.68
2018-07-06T08:50:10.691Z,100607.34
2018-07-06T08:52:40.045Z,100606.97
2018-07-06T08:55:08.542Z,100606.90
2018-07-06T08:57:37.818Z,100606.43
2018-07-06T09:00:07.856Z,100612.75
2018-07-06T09:02:37.743Z,100615.94
2018-07-06T09:05:06.682Z,100616.44
2018-07-06T09:07:35.185Z,100616.62
2018-07-06T09:10:03.965Z,100625.84
2018-07-06T09:12:32.391Z,100634.27
2018-07-06T09:15:01.916Z,100628.84
2018-07-06T09:17:30.395Z,100635.05
2018-07-06T09:19:59.836Z,100634.70
2018-07-06T09:22:28.238Z,100637.63
2018-07-06T09:25:00.041Z,100644.75
2018-07-06T09:27:28.477Z,100640.28
2018-07-06T09:29:57.053Z,100647.37
2018-07-06T09:32:25.433Z,100646.36
2018-07-06T09:34:53.918Z,100653.06
2018-07-06T09:37:22.341Z,100650.50
2018-07-06T09:40:04.842Z,100652.24
2018-07-06T09:42:33.498Z,100649.84
2018-07-06T09:45:01.857Z,100650.87
2018-07-06T09:47:30.317Z,100643.66
2018-07-06T09:49:58.833Z,100647.75
2018-07-06T09:52:27.495Z,100641.95
2018-07-06T09:54:56.019Z,100647.31
2018-07-06T09:57:24.562Z,100644.25
2018-07-06T09:59:53.435Z,100650.91
2018-07-06T10:02:22.009Z,100651.06
2018-07-06T10:04:50.587Z,100645.95
2018-07-06T10:07:19.047Z,100646.39
2018-07-06T10:09:48.234Z,100639.92
2018-07-06T10:12:16.806Z,100639.16
2018-07-06T10:14:45.286Z,100639.73
2018-07-06T10:17:13.764Z,100632.12
2018-07-06T10:19:42.254Z,100636.03
2018-07-06T10:22:10.701Z,100640.09
2018-07-06T10:30:38.539Z,100627.65
2018-07-06T10:33:08.842Z,100638.58
2018-07-06T10:35:37.281Z,100632.12
2018-07-06T10:38:05.923Z,100635.09
2018-07-06T10:40:34.402Z,100635.16
2018-07-06T10:43:02.840Z,100648.28
2018-07-06T10:45:31.401Z,100639.50
2018-07-06T10:47:59.870Z,100638.23
2018-07-06T10:50:28.375Z,100637.41
2018-07-06T10:52:56.850Z,100637.18
2018-07-06T10:55:25.413Z,100638.56
2018-07-06T10:57:54.071Z,100633.27
2018-07-06T11:00:23.682Z,100631.50
2018-07-06T11:02:52.149Z,100635.91
2018-07-06T11:05:20.739Z,100634.50
2018-07-06T11:07:49.287Z,100634.56
2018-07-06T11:10:17.768Z,100635.66
2018-07-06T11:12:46.209Z,100622.81
2018-07-06T11:15:14.654Z,100623.70
2018-07-06T11:17:43.119Z,100626.97
2018-07-06T11:20:11.585Z,100620.31
2018-07-06T11:22:40.023Z,100618.01
2018-07-06T11:25:08.544Z,100616.69
2018-07-06T11:27:37.045Z,100611.97
2018-07-06T11:30:05.644Z,100618.93
2018-07-06T11:32:34.082Z,100614.42
2018-07-06T11:35:02.564Z,100610.30
2018-07-06T11:37:31.073Z,100611.65
2018-07-06T11:39:59.533Z,100620.23
2018-07-06T11:42:27.966Z,100619.67
2018-07-06T11:44:56.542Z,100614.00
2018-07-06T11:47:24.961Z,100613.50
2018-07-06T11:49:53.454Z,100617.89
2018-07-06T11:52:21.959Z,100617.43
2018-07-06T11:54:50.384Z,100607.66
2018-07-06T11:57:18.846Z,100615.43
2018-07-06T11:59:47.281Z,100605.51
2018-07-06T12:02:15.833Z,100609.80
2018-07-06T12:04:44.307Z,100608.72
2018-07-06T12:07:12.767Z,100607.86
2018-07-06T12:09:41.229Z,100605.63
2018-07-06T12:12:09.724Z,100612.81
2018-07-06T12:14:38.269Z,100609.30
2018-07-06T12:17:07.860Z,100605.39
2018-07-06T12:19:36.311Z,100603.55
2018-07-06T12:22:05.258Z,100602.35
2018-07-06T12:24:33.679Z,100598.91
2018-07-06T12:27:02.165Z,100603.00
2018-07-06T12:29:30.646Z,100604.78
2018-07-06T12:31:59.102Z,100608.27
2018-07-06T12:34:27.533Z,100595.05
2018-07-06T12:36:56.239Z,100608.13
2018-07-06T12:39:24.722Z,100605.36
2018-07-06T12:41:53.170Z,100603.13
2018-07-06T12:44:21.629Z,100610.55
2018-07-06T12:46:50.106Z,100597.60
2018-07-06T12:49:18.549Z,100604.98
2018-07-06T12:51:50.705Z,100597.91
2018-07-06T12:54:19.109Z,100603.08
2018-07-06T12:56:48.274Z,100611.47
2018-07-06T12:59:16.794Z,100608.65
2018-07-06T13:01:45.345Z,100605.16
2018-07-06T13:04:14.021Z,100597.77
2018-07-06T13:06:42.489Z,100606.32
2018-07-06T13:09:10.954Z,100594.48
2018-07-06T13:11:39.850Z,100613.09
2018-07-06T13:14:08.369Z,100603.77
2018-07-06T13:16:36.900Z,100610.47
2018-07-06T13:19:05.407Z,100615.63
2018-07-06T13:21:33.941Z,100612.11
2018-07-06T13:24:02.338Z,100603.48
2018-07-06T13:26:30.838Z,100613.04
2018-07-06T13:28:59.249Z,100607.36
2018-07-06T13:31:27.674Z,100610.47
2018-07-06T13:33:56.174Z,100611.38
2018-07-06T13:36:24.488Z,100602.39
2018-07-06T13:38:52.881Z,100605.70
2018-07-06T13:41:21.351Z,100605.19
2018-07-06T13:43:49.767Z,100607.66
2018-07-06T13:46:18.184Z,100609.63
2018-07-06T13:48:46.700Z,100606.61
2018-07-06T13:51:15.206Z,100602.45
2018-07-06T13:53:43.745Z,100608.30
2018-07-06T13:56:12.297Z,100605.16
2018-07-06T13:58:40.826Z,100600.36
2018-07-06T14:01:09.283Z,100604.92
2018-07-06T14:03:37.879Z,100609.33
2018-07-06T14:06:06.437Z,100613.39
2018-07-06T14:08:35.081Z,100613.31
2018-07-06T14:11:03.539Z,100611.58
2018-07-06T14:13:32.067Z,100612.66
2018-07-06T14:16:00.506Z,100613.24
2018-07-06T14:18:29.077Z,100605.16
2018-07-06T14:20:57.523Z,100606.84
2018-07-06T14:23:26.050Z,100606.47
2018-07-06T14:25:54.534Z,100599.93
2018-07-06T14:28:23.071Z,100605.78
2018-07-06T14:30:51.469Z,100606.16
2018-07-06T14:33:20.078Z,100606.31
2018-07-06T14:35:48.576Z,100597.94
2018-07-06T14:38:17.102Z,100594.66
2018-07-06T14:40:45.581Z,100600.69
2018-07-06T14:43:14.666Z,100604.48
2018-07-06T14:45:43.089Z,100598.11
2018-07-06T14:48:11.551Z,100599.52
2018-07-06T14:50:40.014Z,100603.81
2018-07-06T14:53:08.467Z,100600.59
2018-07-06T14:55:36.858Z,100594.19
2018-07-06T14:58:05.873Z,100595.09
2018-07-06T15:00:34.287Z,100591.60
2018-07-06T15:03:02.741Z,100601.27
2018-07-06T15:05:31.154Z,100588.22
2018-07-06T15:07:59.574Z,100594.55
2018-07-06T15:10:28.015Z,100590.65
2018-07-06T15:12:56.461Z,100586.59
2018-07-06T15:15:25.218Z,100589.54
2018-07-06T15:17:53.685Z,100589.46
2018-07-06T15:20:22.273Z,100580.86
2018-07-06T15:22:51.486Z,100580.64
2018-07-06T15:25:19.870Z,100596.14
2018-07-06T15:27:48.461Z,100588.63
2018-07-06T15:30:16.969Z,100584.12
2018-07-06T15:32:45.443Z,100588.28
2018-07-06T15:35:13.838Z,100596.23
2018-07-06T15:37:42.297Z,100598.45
2018-07-06T15:40:10.702Z,100593.34
2018-07-06T15:42:39.099Z,100593.33
2018-07-06T15:45:07.613Z,100596.81
2018-07-06T15:47:36.056Z,100600.20
2018-07-06T15:50:04.601Z,100609.92
2018-07-06T15:52:33.086Z,100609.34
2018-07-06T15:55:01.506Z,100606.41
2018-07-06T15:57:30.049Z,100615.29
2018-07-06T15:59:58.475Z,100610.59
2018-07-06T16:02:27.002Z,100605.91
2018-07-06T16:04:55.435Z,100611.45
2018-07-06T16:07:23.954Z,100608.80
2018-07-06T16:09:52.433Z,100611.48
2018-07-06T16:12:20.902Z,100611.72
2018-07-06T16:14:49.398Z,100603.45
2018-07-06T16:17:25.606Z,100610.77
2018-07-06T16:19:54.282Z,100605.22
2018-07-06T16:22:22.839Z,100602.43
2018-07-06T16:24:51.485Z,100600.56
2018-07-06T16:27:19.877Z,100593.02
2018-07-06T16:29:48.357Z,100599.28
2018-07-06T16:32:19.844Z,100592.73
2018-07-06T16:34:49.246Z,100597.20
2018-07-06T16:37:17.682Z,100589.23
2018-07-06T16:39:46.333Z,100586.78
2018-07-06T16:42:14.804Z,100586.16
2018-07-06T16:44:43.281Z,100598.62
2018-07-06T16:47:16.734Z,100590.05
2018-07-06T16:49:45.343Z,100586.75
2018-07-06T16:52:14.056Z,100581.92
2018-07-06T16:54:42.965Z,100579.50
2018-07-06T16:57:11.929Z,100575.80
2018-07-06T16:59:42.442Z,100573.05
2018-07-06T17:02:11.049Z,100579.46
2018-07-06T17:04:39.517Z,100583.39
2018-07-06T17:07:08.615Z,100589.77
2018-07-06T17:09:37.361Z,100587.06
2018-07-06T17:12:05.941Z,100583.47
2018-07-06T17:14:34.536Z,100584.55
2018-07-06T17:17:03.424Z,100588.28
2018-07-06T17:19:31.896Z,100583.94
2018-07-06T17:22:00.689Z,100590.28
2018-07-06T17:24:29.181Z,100587.92
2018-07-06T17:26:59.654Z,100587.67
2018-07-06T17:29:28.290Z,100586.16
2018-07-06T17:31:56.931Z,100584.77
2018-07-06T17:34:25.599Z,100580.59
2018-07-06T17:36:54.962Z,100581.74
2018-07-06T17:39:23.496Z,100593.13
2018-07-06T17:41:51.984Z,100594.78
2018-07-06T17:44:20.537Z,100586.64
2018-07-06T17:46:49.005Z,100595.09
2018-07-06T17:49:17.615Z,100595.14
2018-07-06T17:51:46.049Z,100592.33
2018-07-06T17:54:14.586Z,100599.85
2018-07-06T17:56:43.837Z,100589.67
2018-07-06T17:59:15.520Z,100591.03
2018-07-06T18:01:44.024Z,100589.39
2018-07-06T18:04:12.647Z,100598.91
2018-07-06T18:06:49.259Z,100602.20
2018-07-06T18:09:18.662Z,100605.11
2018-07-06T18:11:47.466Z,100593.63
2018-07-06T18:14:16.202Z,100595.98
2018-07-06T18:16:45.138Z,100597.80
2018-07-06T18:19:13.646Z,100601.27
2018-07-06T18:21:45.898Z,100599.86
2018-07-06T18:24:14.749Z,100595.63
2018-07-06T18:26:43.178Z,100596.83
2018-07-06T18:29:11.826Z,100596.34
2018-07-06T18:31:40.936Z,100596.13
2018-07-06T18:34:09.639Z,100602.11
2018-07-06T18:36:38.142Z,100590.83
2018-07-06T18:39:08.347Z,100593.36
2018-07-06T18:41:36.798Z,100594.58
2018-07-06T18:44:05.329Z,100594.11
2018-07-06T18:46:33.789Z,100600.30
2018-07-06T18:49:02.634Z,100598.80
2018-07-06T18:51:31.214Z,100594.79
2018-07-06T18:54:00.591Z,100595.67
2018-07-06T18:56:29.249Z,100597.55
2018-07-06T18:58:58.605Z,100604.94
2018-07-06T19:01:27.090Z,100606.10
2018-07-06T19:03:57.005Z,100601.61
2018-07-06T19:06:25.874Z,100601.70
2018-07-06T19:09:12.905Z,100599.56
2018-07-06T19:11:41.358Z,100603.78
2018-07-06T19:14:09.889Z,100612.04
2018-07-06T19:16:38.405Z,100607.66
2018-07-06T19:19:06.918Z,100616.08
2018-07-06T19:21:35.430Z,100620.23
2018-07-06T19:24:03.978Z,100621.64
2018-07-06T19:26:33.550Z,100626.80
2018-07-06T19:29:02.074Z,100630.68
2018-07-06T19:31:30.638Z,100629.77
2018-07-06T19:33:59.228Z,100637.10
2018-07-06T19:36:28.319Z,100636.13
2018-07-06T19:38:56.833Z,100641.97
2018-07-06T19:41:25.290Z,100645.55
2018-07-06T19:43:53.810Z,100643.60
2018-07-06T19:46:22.839Z,100638.00
2018-07-06T19:48:51.381Z,100646.86
2018-07-06T19:51:19.893Z,100646.80
2018-07-06T19:53:48.343Z,100658.48
2018-07-06T19:56:16.820Z,100660.59
2018-07-06T19:58:45.331Z,100662.43
2018-07-06T20:01:14.076Z,100665.72
2018-07-06T20:03:42.605Z,100672.78
2018-07-06T20:06:11.110Z,100672.70
2018-07-06T20:08:39.910Z,100680.11
2018-07-06T20:11:08.418Z,100684.53
2018-07-06T20:13:37.214Z,100681.97
2018-07-06T20:16:05.781Z,100684.14
2018-07-06T20:18:34.245Z,100689.48
2018-07-06T20:21:02.765Z,100689.05
2018-07-06T20:23:31.260Z,100692.23
2018-07-06T20:25:59.750Z,100692.70
2018-07-06T20:28:28.262Z,100697.65
2018-07-06T20:30:56.739Z,100701.55
2018-07-06T20:33:25.201Z,100696.06
2018-07-06T20:35:53.657Z,100698.84
2018-07-06T20:38:22.097Z,100693.01
2018-07-06T20:40:50.619Z,100690.80
2018-07-06T20:43:19.059Z,100692.87
2018-07-06T20:45:47.565Z,100691.88
2018-07-06T20:48:16.037Z,100693.14
2018-07-06T20:50:44.502Z,100693.14
2018-07-06T20:53:13.010Z,100694.48
2018-07-06T20:55:41.586Z,100693.73
2018-07-06T20:58:10.084Z,100700.85
2018-07-06T21:00:38.582Z,100694.85
2018-07-06T21:03:07.020Z,100690.97
2018-07-06T21:05:36.521Z,100691.23
2018-07-06T21:08:05.016Z,100689.52
2018-07-06T21:10:33.542Z,100700.30
2018-07-06T21:13:01.953Z,100700.83
2018-07-06T21:15:30.390Z,100706.69
2018-07-06T21:17:58.818Z,100710.81
2018-07-06T21:20:27.296Z,100708.52
2018-07-06T21:22:55.709Z,100708.20
2018-07-06T21:25:24.081Z,100709.80
2018-07-06T21:27:52.527Z,100711.78
2018-07-06T21:30:20.942Z,100710.36
2018-07-06T21:32:49.505Z,100713.48
2018-07-06T21:35:17.910Z,100712.47
2018-07-06T21:37:46.382Z,100712.57
2018-07-06T21:40:14.884Z,100708.70
2018-07-06T21:42:43.372Z,100708.02
2018-07-06T21:45:11.877Z,100716.14
2018-07-06T21:47:40.366Z,100704.56
2018-07-06T21:50:08.892Z,100709.34
2018-07-06T21:52:37.318Z,100718.87
2018-07-06T21:55:05.737Z,100716.39
2018-07-06T21:57:34.460Z,100718.81
2018-07-06T22:00:02.955Z,100723.25
2018-07-06T22:02:31.853Z,100721.30
2018-07-06T22:05:00.358Z,100719.65
2018-07-06T22:07:28.802Z,100722.48
2018-07-06T22:09:57.254Z,100721.37
2018-07-06T22:12:25.685Z,100721.37
2018-07-06T22:17:21.541Z,100719.09
2018-07-06T22:19:49.975Z,100716.64
2018-07-06T22:22:18.411Z,100723.01
2018-07-06T22:24:46.783Z,100730.69
2018-07-06T22:27:15.247Z,100732.50
2018-07-06T22:29:43.672Z,100727.41
2018-07-06T22:32:12.114Z,100734.77
2018-07-06T22:34:40.576Z,100735.11
2018-07-06T22:37:09.017Z,100733.77
2018-07-06T22:39:37.511Z,100733.07
2018-07-06T22:42:06.109Z,100729.52
2018-07-06T22:44:34.549Z,100730.31
2018-07-06T22:47:03.011Z,100731.39
2018-07-06T22:49:31.434Z,100736.03
2018-07-06T22:51:59.941Z,100736.37
2018-07-06T22:54:28.345Z,100738.57
2018-07-06T22:56:56.769Z,100730.72
2018-07-06T22:59:25.182Z,100732.11
2018-07-06T23:01:53.590Z,100726.55
2018-07-06T23:04:22.049Z,100732.18
2018-07-06T23:06:50.461Z,100730.96
2018-07-06T23:09:18.953Z,100734.91
2018-07-06T23:11:47.413Z,100730.69
2018-07-06T23:14:15.821Z,100728.24
2018-07-06T23:16:44.277Z,100732.61
2018-07-06T23:19:12.750Z,100729.31
2018-07-06T23:21:41.230Z,100733.13
2018-07-06T23:24:09.735Z,100733.71
2018-07-06T23:26:38.194Z,100732.73
2018-07-06T23:29:06.687Z,100741.52
2018-07-06T23:31:35.123Z,100734.88
2018-07-06T23:34:03.537Z,100732.44
2018-07-06T23:36:31.943Z,100734.28
2018-07-06T23:39:00.389Z,100735.11
2018-07-06T23:41:28.868Z,100734.61
2018-07-06T23:43:57.404Z,100732.72
2018-07-06T23:46:25.841Z,100740.71
2018-07-06T23:48:54.339Z,100739.31
2018-07-06T23:51:22.852Z,100738.48
2018-07-06T23:53:51.334Z,100741.52
2018-07-06T23:56:19.744Z,100747.28
2018-07-06T23:58:48.172Z,100742.72
